sensor_id;sensor_type;location;lat;lon;timestamp;temperature;humidity
15121;DHT22;7661;48.904;9.414;2023-06-24T00:00:00;17.80;99.90
15121;DHT22;7661;48.904;9.414;2023-06-24T00:02:28;17.70;99.90
15121;DHT22;7661;48.904;9.414;2023-06-24T00:04:55;17.60;99.90
15121;DHT22;7661;48.904;9.414;2023-06-24T00:07:25;17.60;99.90
15121;DHT22;7661;48.904;9.414;2023-06-24T00:09:53;17.40;99.90
15121;DHT22;7661;48.904;9.414;2023-06-24T00:12:19;17.40;99.90
15121;DHT22;7661;48.904;9.414;2023-06-24T00:14:47;17.40;99.90
15121;DHT22;7661;48.904;9.414;2023-06-24T00:17:15;17.40;99.90
15121;DHT22;7661;48.904;9.414;2023-06-24T00:19:42;17.30;99.90
15121;DHT22;7661;48.904;9.414;2023-06-24T00:22:10;17.30;99.90
15121;DHT22;7661;48.904;9.414;2023-06-24T00:24:37;17.20;99.90
15121;DHT22;7661;48.904;9.414;2023-06-24T00:27:05;17.20;99.90
15121;DHT22;7661;48.904;9.414;2023-06-24T00:29:32;17.20;99.90
15121;DHT22;7661;48.904;9.414;2023-06-24T00:31:59;17.20;99.90
15121;DHT22;7661;48.904;9.414;2023-06-24T00:34:27;17.10;99.90
15121;DHT22;7661;48.904;9.414;2023-06-24T00:36:54;17.10;99.90
15121;DHT22;7661;48.904;9.414;2023-06-24T00:39:21;17.10;99.90
15121;DHT22;7661;48.904;9.414;2023-06-24T00:41:49;17.10;99.90
15121;DHT22;7661;48.904;9.414;2023-06-24T00:44:16;17.10;99.90
15121;DHT22;7661;48.904;9.414;2023-06-24T00:46:43;17.10;99.90
15121;DHT22;7661;48.904;9.414;2023-06-24T00:49:10;17.00;99.90
15121;DHT22;7661;48.904;9.414;2023-06-24T00:51:42;17.00;99.90
15121;DHT22;7661;48.904;9.414;2023-06-24T00:54:12;16.90;99.90
15121;DHT22;7661;48.904;9.414;2023-06-24T00:56:39;16.90;99.90
15121;DHT22;7661;48.904;9.414;2023-06-24T00:59:10;16.80;99.90
15121;DHT22;7661;48.904;9.414;2023-06-24T01:01:39;16.80;99.90
15121;DHT22;7661;48.904;9.414;2023-06-24T01:04:07;16.80;99.90
15121;DHT22;7661;48.904;9.414;2023-06-24T01:06:35;16.80;99.90
15121;DHT22;7661;48.904;9.414;2023-06-24T01:09:10;16.70;99.90
15121;DHT22;7661;48.904;9.414;2023-06-24T01:11:37;16.60;99.90
15121;DHT22;7661;48.904;9.414;2023-06-24T01:14:04;16.50;99.90
15121;DHT22;7661;48.904;9.414;2023-06-24T01:16:36;16.50;99.90
15121;DHT22;7661;48.904;9.414;2023-06-24T01:19:16;16.50;99.90
15121;DHT22;7661;48.904;9.414;2023-06-24T01:22:00;16.50;99.90
15121;DHT22;7661;48.904;9.414;2023-06-24T01:24:51;16.50;99.90
15121;DHT22;7661;48.904;9.414;2023-06-24T01:27:32;16.50;99.90
15121;DHT22;7661;48.904;9.414;2023-06-24T01:33:16;16.50;99.90
15121;DHT22;7661;48.904;9.414;2023-06-24T01:35:47;16.50;99.90
15121;DHT22;7661;48.904;9.414;2023-06-24T01:38:20;16.40;99.90
15121;DHT22;7661;48.904;9.414;2023-06-24T01:40:48;16.40;99.90
15121;DHT22;7661;48.904;9.414;2023-06-24T01:43:17;16.40;99.90
15121;DHT22;7661;48.904;9.414;2023-06-24T01:45:50;16.30;99.90
15121;DHT22;7661;48.904;9.414;2023-06-24T01:48:24;16.20;99.90
15121;DHT22;7661;48.904;9.414;2023-06-24T01:50:57;16.10;99.90
15121;DHT22;7661;48.904;9.414;2023-06-24T01:53:27;16.00;99.90
15121;DHT22;7661;48.904;9.414;2023-06-24T01:55:55;15.90;99.90
15121;DHT22;7661;48.904;9.414;2023-06-24T01:58:23;16.00;99.90
15121;DHT22;7661;48.904;9.414;2023-06-24T02:00:50;15.90;99.90
15121;DHT22;7661;48.904;9.414;2023-06-24T02:03:21;15.90;99.90
15121;DHT22;7661;48.904;9.414;2023-06-24T02:05:49;15.80;99.90
15121;DHT22;7661;48.904;9.414;2023-06-24T02:08:19;15.90;99.90
15121;DHT22;7661;48.904;9.414;2023-06-24T02:10:48;15.80;99.90
15121;DHT22;7661;48.904;9.414;2023-06-24T02:13:16;15.80;99.90
15121;DHT22;7661;48.904;9.414;2023-06-24T02:15:45;15.80;99.90
15121;DHT22;7661;48.904;9.414;2023-06-24T02:18:14;15.70;99.90
15121;DHT22;7661;48.904;9.414;2023-06-24T02:20:44;15.70;99.90
15121;DHT22;7661;48.904;9.414;2023-06-24T02:23:13;15.70;99.90
15121;DHT22;7661;48.904;9.414;2023-06-24T02:25:40;15.70;99.90
15121;DHT22;7661;48.904;9.414;2023-06-24T02:28:08;15.60;99.90
15121;DHT22;7661;48.904;9.414;2023-06-24T02:30:37;15.60;99.90
15121;DHT22;7661;48.904;9.414;2023-06-24T02:33:04;15.60;99.90
15121;DHT22;7661;48.904;9.414;2023-06-24T02:35:32;15.50;99.90
15121;DHT22;7661;48.904;9.414;2023-06-24T02:38:00;15.50;99.90
15121;DHT22;7661;48.904;9.414;2023-06-24T02:40:28;15.50;99.90
15121;DHT22;7661;48.904;9.414;2023-06-24T02:42:56;15.50;99.90
15121;DHT22;7661;48.904;9.414;2023-06-24T02:45:24;15.50;99.90
15121;DHT22;7661;48.904;9.414;2023-06-24T02:47:51;15.40;99.90
15121;DHT22;7661;48.904;9.414;2023-06-24T02:50:19;15.40;99.90
15121;DHT22;7661;48.904;9.414;2023-06-24T02:52:46;15.40;99.90
15121;DHT22;7661;48.904;9.414;2023-06-24T02:55:15;15.40;99.90
15121;DHT22;7661;48.904;9.414;2023-06-24T02:57:43;15.40;99.90
15121;DHT22;7661;48.904;9.414;2023-06-24T03:00:12;15.40;99.90
15121;DHT22;7661;48.904;9.414;2023-06-24T03:02:40;15.30;99.90
15121;DHT22;7661;48.904;9.414;2023-06-24T03:05:09;15.30;99.90
15121;DHT22;7661;48.904;9.414;2023-06-24T03:07:37;15.20;99.90
15121;DHT22;7661;48.904;9.414;2023-06-24T03:10:05;15.20;99.90
15121;DHT22;7661;48.904;9.414;2023-06-24T03:12:34;15.20;99.90
15121;DHT22;7661;48.904;9.414;2023-06-24T03:15:01;15.20;99.90
15121;DHT22;7661;48.904;9.414;2023-06-24T03:17:28;15.20;99.90
15121;DHT22;7661;48.904;9.414;2023-06-24T03:19:55;15.10;99.90
15121;DHT22;7661;48.904;9.414;2023-06-24T03:22:22;15.10;99.90
15121;DHT22;7661;48.904;9.414;2023-06-24T03:24:49;15.10;99.90
15121;DHT22;7661;48.904;9.414;2023-06-24T03:27:17;15.10;99.90
15121;DHT22;7661;48.904;9.414;2023-06-24T03:29:45;15.10;99.90
15121;DHT22;7661;48.904;9.414;2023-06-24T03:32:12;15.00;99.90
15121;DHT22;7661;48.904;9.414;2023-06-24T03:34:39;15.00;99.90
15121;DHT22;7661;48.904;9.414;2023-06-24T03:37:06;15.00;99.90
15121;DHT22;7661;48.904;9.414;2023-06-24T03:39:33;15.00;99.90
15121;DHT22;7661;48.904;9.414;2023-06-24T03:42:00;15.00;99.90
15121;DHT22;7661;48.904;9.414;2023-06-24T03:44:27;15.00;99.90
15121;DHT22;7661;48.904;9.414;2023-06-24T03:46:55;15.10;99.90
15121;DHT22;7661;48.904;9.414;2023-06-24T03:49:22;15.10;99.90
15121;DHT22;7661;48.904;9.414;2023-06-24T03:51:49;15.10;99.90
15121;DHT22;7661;48.904;9.414;2023-06-24T03:54:16;15.10;99.90
15121;DHT22;7661;48.904;9.414;2023-06-24T03:56:42;15.10;99.90
15121;DHT22;7661;48.904;9.414;2023-06-24T03:59:09;15.10;99.90
15121;DHT22;7661;48.904;9.414;2023-06-24T04:01:36;15.10;99.90
15121;DHT22;7661;48.904;9.414;2023-06-24T04:04:04;15.20;99.90
15121;DHT22;7661;48.904;9.414;2023-06-24T04:06:31;15.20;99.90
15121;DHT22;7661;48.904;9.414;2023-06-24T04:08:58;15.20;99.90
15121;DHT22;7661;48.904;9.414;2023-06-24T04:11:25;15.20;99.90
15121;DHT22;7661;48.904;9.414;2023-06-24T04:13:52;15.20;99.90
15121;DHT22;7661;48.904;9.414;2023-06-24T04:16:19;15.20;99.90
15121;DHT22;7661;48.904;9.414;2023-06-24T04:18:46;15.20;99.90
15121;DHT22;7661;48.904;9.414;2023-06-24T04:21:14;15.30;99.90
15121;DHT22;7661;48.904;9.414;2023-06-24T04:23:41;15.40;99.90
15121;DHT22;7661;48.904;9.414;2023-06-24T04:26:08;15.40;99.90
15121;DHT22;7661;48.904;9.414;2023-06-24T04:28:35;15.40;99.90
15121;DHT22;7661;48.904;9.414;2023-06-24T04:31:03;15.50;99.90
15121;DHT22;7661;48.904;9.414;2023-06-24T04:33:30;15.50;99.90
15121;DHT22;7661;48.904;9.414;2023-06-24T04:35:57;15.60;99.90
15121;DHT22;7661;48.904;9.414;2023-06-24T04:38:26;15.60;99.90
15121;DHT22;7661;48.904;9.414;2023-06-24T04:40:53;15.70;99.90
15121;DHT22;7661;48.904;9.414;2023-06-24T04:43:20;15.70;99.90
15121;DHT22;7661;48.904;9.414;2023-06-24T04:45:47;15.80;99.90
15121;DHT22;7661;48.904;9.414;2023-06-24T04:48:13;15.80;99.90
15121;DHT22;7661;48.904;9.414;2023-06-24T04:50:40;15.90;99.90
15121;DHT22;7661;48.904;9.414;2023-06-24T04:53:07;15.90;99.90
15121;DHT22;7661;48.904;9.414;2023-06-24T04:55:35;15.90;99.90
15121;DHT22;7661;48.904;9.414;2023-06-24T04:58:02;16.00;99.90
15121;DHT22;7661;48.904;9.414;2023-06-24T05:00:29;16.10;99.90
15121;DHT22;7661;48.904;9.414;2023-06-24T05:02:56;16.10;99.90
15121;DHT22;7661;48.904;9.414;2023-06-24T05:05:23;16.10;99.90
15121;DHT22;7661;48.904;9.414;2023-06-24T05:07:50;16.10;99.90
15121;DHT22;7661;48.904;9.414;2023-06-24T05:10:16;16.20;99.90
15121;DHT22;7661;48.904;9.414;2023-06-24T05:12:45;16.10;99.90
15121;DHT22;7661;48.904;9.414;2023-06-24T05:15:11;16.20;99.90
15121;DHT22;7661;48.904;9.414;2023-06-24T05:17:39;16.10;99.90
15121;DHT22;7661;48.904;9.414;2023-06-24T05:20:07;16.20;99.90
15121;DHT22;7661;48.904;9.414;2023-06-24T05:22:34;16.20;99.90
15121;DHT22;7661;48.904;9.414;2023-06-24T05:25:01;16.20;99.90
15121;DHT22;7661;48.904;9.414;2023-06-24T05:27:28;16.30;99.90
15121;DHT22;7661;48.904;9.414;2023-06-24T05:29:57;16.30;99.90
15121;DHT22;7661;48.904;9.414;2023-06-24T05:32:23;16.40;99.90
15121;DHT22;7661;48.904;9.414;2023-06-24T05:34:50;16.40;99.90
15121;DHT22;7661;48.904;9.414;2023-06-24T05:37:17;16.40;99.90
15121;DHT22;7661;48.904;9.414;2023-06-24T05:39:44;16.50;99.90
15121;DHT22;7661;48.904;9.414;2023-06-24T05:42:11;16.50;99.90
15121;DHT22;7661;48.904;9.414;2023-06-24T05:44:38;16.50;99.90
15121;DHT22;7661;48.904;9.414;2023-06-24T05:47:06;16.60;99.90
15121;DHT22;7661;48.904;9.414;2023-06-24T05:49:33;16.70;99.90
15121;DHT22;7661;48.904;9.414;2023-06-24T05:52:00;16.80;99.90
15121;DHT22;7661;48.904;9.414;2023-06-24T05:54:27;16.90;99.90
15121;DHT22;7661;48.904;9.414;2023-06-24T05:56:53;16.90;99.90
15121;DHT22;7661;48.904;9.414;2023-06-24T05:59:20;17.00;99.90
15121;DHT22;7661;48.904;9.414;2023-06-24T06:01:47;17.00;99.90
15121;DHT22;7661;48.904;9.414;2023-06-24T06:04:15;17.10;99.90
15121;DHT22;7661;48.904;9.414;2023-06-24T06:06:42;17.10;99.90
15121;DHT22;7661;48.904;9.414;2023-06-24T06:09:09;17.30;99.90
15121;DHT22;7661;48.904;9.414;2023-06-24T06:11:36;17.30;99.90
15121;DHT22;7661;48.904;9.414;2023-06-24T06:14:03;17.40;99.90
15121;DHT22;7661;48.904;9.414;2023-06-24T06:16:29;17.50;99.90
15121;DHT22;7661;48.904;9.414;2023-06-24T06:18:56;17.60;99.90
15121;DHT22;7661;48.904;9.414;2023-06-24T06:21:25;17.70;99.90
15121;DHT22;7661;48.904;9.414;2023-06-24T06:23:51;17.80;99.90
15121;DHT22;7661;48.904;9.414;2023-06-24T06:26:18;17.90;99.90
15121;DHT22;7661;48.904;9.414;2023-06-24T06:28:45;17.90;99.90
15121;DHT22;7661;48.904;9.414;2023-06-24T06:31:13;18.10;99.90
15121;DHT22;7661;48.904;9.414;2023-06-24T06:33:40;18.10;99.90
15121;DHT22;7661;48.904;9.414;2023-06-24T06:36:07;18.20;99.90
15121;DHT22;7661;48.904;9.414;2023-06-24T06:38:35;18.30;99.90
15121;DHT22;7661;48.904;9.414;2023-06-24T06:41:02;18.50;99.90
15121;DHT22;7661;48.904;9.414;2023-06-24T06:43:29;18.60;99.90
15121;DHT22;7661;48.904;9.414;2023-06-24T06:45:56;18.70;99.90
15121;DHT22;7661;48.904;9.414;2023-06-24T06:48:22;18.70;99.90
15121;DHT22;7661;48.904;9.414;2023-06-24T06:50:49;18.80;99.90
15121;DHT22;7661;48.904;9.414;2023-06-24T06:53:18;19.00;99.90
15121;DHT22;7661;48.904;9.414;2023-06-24T06:55:46;19.00;99.90
15121;DHT22;7661;48.904;9.414;2023-06-24T06:58:13;19.10;99.90
15121;DHT22;7661;48.904;9.414;2023-06-24T07:00:40;19.20;99.90
15121;DHT22;7661;48.904;9.414;2023-06-24T07:03:06;19.40;99.90
15121;DHT22;7661;48.904;9.414;2023-06-24T07:05:33;19.50;99.90
15121;DHT22;7661;48.904;9.414;2023-06-24T07:08:00;19.70;99.90
15121;DHT22;7661;48.904;9.414;2023-06-24T07:10:27;19.70;99.90
15121;DHT22;7661;48.904;9.414;2023-06-24T07:12:55;19.80;99.90
15121;DHT22;7661;48.904;9.414;2023-06-24T07:15:24;20.00;99.90
15121;DHT22;7661;48.904;9.414;2023-06-24T07:17:51;20.10;99.90
15121;DHT22;7661;48.904;9.414;2023-06-24T07:20:18;20.30;99.90
15121;DHT22;7661;48.904;9.414;2023-06-24T07:22:45;20.40;99.90
15121;DHT22;7661;48.904;9.414;2023-06-24T07:25:12;20.40;99.90
15121;DHT22;7661;48.904;9.414;2023-06-24T07:27:39;20.50;99.90
15121;DHT22;7661;48.904;9.414;2023-06-24T07:30:08;20.60;99.90
15121;DHT22;7661;48.904;9.414;2023-06-24T07:32:35;20.70;99.90
15121;DHT22;7661;48.904;9.414;2023-06-24T07:35:02;20.90;99.90
15121;DHT22;7661;48.904;9.414;2023-06-24T07:37:29;21.10;99.90
15121;DHT22;7661;48.904;9.414;2023-06-24T07:39:56;21.20;99.90
15121;DHT22;7661;48.904;9.414;2023-06-24T07:42:22;21.40;99.90
15121;DHT22;7661;48.904;9.414;2023-06-24T07:44:50;21.50;99.90
15121;DHT22;7661;48.904;9.414;2023-06-24T07:47:18;21.70;99.90
15121;DHT22;7661;48.904;9.414;2023-06-24T07:49:45;21.80;99.90
15121;DHT22;7661;48.904;9.414;2023-06-24T07:52:12;21.80;99.90
15121;DHT22;7661;48.904;9.414;2023-06-24T07:54:39;21.70;99.90
15121;DHT22;7661;48.904;9.414;2023-06-24T07:57:06;21.70;99.90
15121;DHT22;7661;48.904;9.414;2023-06-24T07:59:32;21.90;99.90
15121;DHT22;7661;48.904;9.414;2023-06-24T08:01:59;22.00;99.90
15121;DHT22;7661;48.904;9.414;2023-06-24T08:04:28;22.20;99.90
15121;DHT22;7661;48.904;9.414;2023-06-24T08:06:54;22.50;99.90
15121;DHT22;7661;48.904;9.414;2023-06-24T08:09:21;22.50;99.90
15121;DHT22;7661;48.904;9.414;2023-06-24T08:11:48;22.50;99.90
15121;DHT22;7661;48.904;9.414;2023-06-24T08:14:15;22.50;99.90
15121;DHT22;7661;48.904;9.414;2023-06-24T08:16:42;22.60;99.90
15121;DHT22;7661;48.904;9.414;2023-06-24T08:19:09;22.80;99.90
15121;DHT22;7661;48.904;9.414;2023-06-24T08:21:37;22.90;99.90
15121;DHT22;7661;48.904;9.414;2023-06-24T08:24:04;22.90;99.90
15121;DHT22;7661;48.904;9.414;2023-06-24T08:26:31;22.90;99.90
15121;DHT22;7661;48.904;9.414;2023-06-24T08:28:58;22.90;99.90
15121;DHT22;7661;48.904;9.414;2023-06-24T08:31:25;23.00;99.90
15121;DHT22;7661;48.904;9.414;2023-06-24T08:33:52;23.10;99.90
15121;DHT22;7661;48.904;9.414;2023-06-24T08:36:21;23.30;99.90
15121;DHT22;7661;48.904;9.414;2023-06-24T08:38:50;23.60;99.90
15121;DHT22;7661;48.904;9.414;2023-06-24T08:41:18;24.00;99.90
15121;DHT22;7661;48.904;9.414;2023-06-24T08:43:44;24.10;99.90
15121;DHT22;7661;48.904;9.414;2023-06-24T08:46:13;24.20;99.90
15121;DHT22;7661;48.904;9.414;2023-06-24T08:48:43;24.20;99.90
15121;DHT22;7661;48.904;9.414;2023-06-24T08:51:13;24.30;99.90
15121;DHT22;7661;48.904;9.414;2023-06-24T08:53:43;24.50;99.90
15121;DHT22;7661;48.904;9.414;2023-06-24T08:56:11;24.70;99.90
15121;DHT22;7661;48.904;9.414;2023-06-24T08:58:40;24.60;99.90
15121;DHT22;7661;48.904;9.414;2023-06-24T09:01:07;24.30;99.90
15121;DHT22;7661;48.904;9.414;2023-06-24T09:03:34;24.30;99.90
15121;DHT22;7661;48.904;9.414;2023-06-24T09:06:02;24.40;99.90
15121;DHT22;7661;48.904;9.414;2023-06-24T09:08:29;24.60;99.90
15121;DHT22;7661;48.904;9.414;2023-06-24T09:10:56;24.50;99.90
15121;DHT22;7661;48.904;9.414;2023-06-24T09:13:34;24.60;99.90
15121;DHT22;7661;48.904;9.414;2023-06-24T09:16:11;24.70;99.90
15121;DHT22;7661;48.904;9.414;2023-06-24T09:18:39;24.90;99.90
15121;DHT22;7661;48.904;9.414;2023-06-24T09:21:05;25.30;99.90
15121;DHT22;7661;48.904;9.414;2023-06-24T09:23:35;25.60;99.90
15121;DHT22;7661;48.904;9.414;2023-06-24T09:26:02;26.00;97.00
15121;DHT22;7661;48.904;9.414;2023-06-24T09:28:30;26.30;95.80
15121;DHT22;7661;48.904;9.414;2023-06-24T09:31:06;26.60;95.80
15121;DHT22;7661;48.904;9.414;2023-06-24T09:33:33;26.80;94.40
15121;DHT22;7661;48.904;9.414;2023-06-24T09:36:02;27.00;93.40
15121;DHT22;7661;48.904;9.414;2023-06-24T09:38:33;27.20;93.10
15121;DHT22;7661;48.904;9.414;2023-06-24T09:41:02;27.50;91.70
15121;DHT22;7661;48.904;9.414;2023-06-24T09:43:33;27.80;91.50
15121;DHT22;7661;48.904;9.414;2023-06-24T09:46:02;28.10;88.90
15121;DHT22;7661;48.904;9.414;2023-06-24T09:48:29;28.20;88.50
15121;DHT22;7661;48.904;9.414;2023-06-24T09:50:59;28.50;87.30
15121;DHT22;7661;48.904;9.414;2023-06-24T09:53:27;28.80;91.10
15121;DHT22;7661;48.904;9.414;2023-06-24T09:55:54;29.00;89.80
15121;DHT22;7661;48.904;9.414;2023-06-24T09:58:21;28.80;89.00
15121;DHT22;7661;48.904;9.414;2023-06-24T10:00:50;28.90;91.60
15121;DHT22;7661;48.904;9.414;2023-06-24T10:03:18;29.20;91.00
15121;DHT22;7661;48.904;9.414;2023-06-24T10:05:45;29.60;91.90
15121;DHT22;7661;48.904;9.414;2023-06-24T10:08:14;29.90;87.00
15121;DHT22;7661;48.904;9.414;2023-06-24T10:10:40;30.00;78.90
15121;DHT22;7661;48.904;9.414;2023-06-24T10:13:08;30.10;75.80
15121;DHT22;7661;48.904;9.414;2023-06-24T10:15:35;30.20;75.80
15121;DHT22;7661;48.904;9.414;2023-06-24T10:18:33;30.40;76.00
15121;DHT22;7661;48.904;9.414;2023-06-24T10:21:00;30.90;96.80
15121;DHT22;7661;48.904;9.414;2023-06-24T10:23:30;31.10;91.30
15121;DHT22;7661;48.904;9.414;2023-06-24T10:25:58;31.10;91.90
15121;DHT22;7661;48.904;9.414;2023-06-24T10:28:25;30.60;92.00
15121;DHT22;7661;48.904;9.414;2023-06-24T10:30:54;30.10;92.70
15121;DHT22;7661;48.904;9.414;2023-06-24T10:33:24;29.90;92.20
15121;DHT22;7661;48.904;9.414;2023-06-24T10:35:51;29.50;99.40
15121;DHT22;7661;48.904;9.414;2023-06-24T10:38:18;29.10;99.80
15121;DHT22;7661;48.904;9.414;2023-06-24T10:40:45;29.00;98.80
15121;DHT22;7661;48.904;9.414;2023-06-24T10:43:28;29.70;98.30
15121;DHT22;7661;48.904;9.414;2023-06-24T10:45:57;30.20;97.60
15121;DHT22;7661;48.904;9.414;2023-06-24T10:48:25;30.30;96.90
15121;DHT22;7661;48.904;9.414;2023-06-24T10:50:52;30.60;96.60
15121;DHT22;7661;48.904;9.414;2023-06-24T10:53:19;31.00;95.80
15121;DHT22;7661;48.904;9.414;2023-06-24T10:55:48;31.50;95.60
15121;DHT22;7661;48.904;9.414;2023-06-24T10:58:14;32.10;78.10
15121;DHT22;7661;48.904;9.414;2023-06-24T11:00:42;32.60;80.00
15121;DHT22;7661;48.904;9.414;2023-06-24T11:03:12;32.60;79.30
15121;DHT22;7661;48.904;9.414;2023-06-24T11:05:41;32.80;75.90
15121;DHT22;7661;48.904;9.414;2023-06-24T11:08:09;33.10;60.90
15121;DHT22;7661;48.904;9.414;2023-06-24T11:10:42;33.20;58.30
15121;DHT22;7661;48.904;9.414;2023-06-24T11:13:10;33.30;60.90
15121;DHT22;7661;48.904;9.414;2023-06-24T11:15:38;33.40;58.50
15121;DHT22;7661;48.904;9.414;2023-06-24T11:18:05;33.00;58.90
15121;DHT22;7661;48.904;9.414;2023-06-24T11:20:34;32.20;59.40
15121;DHT22;7661;48.904;9.414;2023-06-24T11:23:06;31.80;60.30
15121;DHT22;7661;48.904;9.414;2023-06-24T11:25:39;31.40;61.90
15121;DHT22;7661;48.904;9.414;2023-06-24T11:28:12;31.00;62.90
15121;DHT22;7661;48.904;9.414;2023-06-24T11:30:39;30.70;63.40
15121;DHT22;7661;48.904;9.414;2023-06-24T11:33:06;31.10;63.60
15121;DHT22;7661;48.904;9.414;2023-06-24T11:35:33;31.80;62.40
15121;DHT22;7661;48.904;9.414;2023-06-24T11:38:03;32.20;60.60
15121;DHT22;7661;48.904;9.414;2023-06-24T11:40:31;32.00;61.40
15121;DHT22;7661;48.904;9.414;2023-06-24T11:43:00;31.80;62.30
15121;DHT22;7661;48.904;9.414;2023-06-24T11:45:27;31.70;61.30
15121;DHT22;7661;48.904;9.414;2023-06-24T11:48:02;32.20;61.20
15121;DHT22;7661;48.904;9.414;2023-06-24T11:50:30;32.20;58.50
15121;DHT22;7661;48.904;9.414;2023-06-24T11:52:57;32.10;57.30
15121;DHT22;7661;48.904;9.414;2023-06-24T11:57:56;31.60;58.10
15121;DHT22;7661;48.904;9.414;2023-06-24T12:00:24;31.60;59.60
15121;DHT22;7661;48.904;9.414;2023-06-24T12:02:53;32.40;58.40
15121;DHT22;7661;48.904;9.414;2023-06-24T12:05:25;33.20;58.50
15121;DHT22;7661;48.904;9.414;2023-06-24T12:07:56;33.80;56.10
15121;DHT22;7661;48.904;9.414;2023-06-24T12:10:23;34.50;92.70
15121;DHT22;7661;48.904;9.414;2023-06-24T12:12:50;35.20;54.10
15121;DHT22;7661;48.904;9.414;2023-06-24T12:15:19;35.50;53.70
15121;DHT22;7661;48.904;9.414;2023-06-24T12:17:46;35.50;53.40
15121;DHT22;7661;48.904;9.414;2023-06-24T12:20:13;35.40;51.20
15121;DHT22;7661;48.904;9.414;2023-06-24T12:22:41;34.60;50.40
15121;DHT22;7661;48.904;9.414;2023-06-24T12:25:09;33.70;52.40
15121;DHT22;7661;48.904;9.414;2023-06-24T12:27:36;33.10;53.40
15121;DHT22;7661;48.904;9.414;2023-06-24T12:30:04;32.60;53.70
15121;DHT22;7661;48.904;9.414;2023-06-24T12:32:32;32.70;55.00
15121;DHT22;7661;48.904;9.414;2023-06-24T12:34:59;33.50;55.80
15121;DHT22;7661;48.904;9.414;2023-06-24T12:37:29;34.20;54.00
15121;DHT22;7661;48.904;9.414;2023-06-24T12:39:56;34.80;51.20
15121;DHT22;7661;48.904;9.414;2023-06-24T12:42:23;35.40;52.30
15121;DHT22;7661;48.904;9.414;2023-06-24T12:44:50;35.80;51.00
15121;DHT22;7661;48.904;9.414;2023-06-24T12:47:17;36.20;50.00
15121;DHT22;7661;48.904;9.414;2023-06-24T12:49:46;36.40;48.50
15121;DHT22;7661;48.904;9.414;2023-06-24T12:52:13;35.90;49.00
15121;DHT22;7661;48.904;9.414;2023-06-24T12:54:40;35.10;48.30
15121;DHT22;7661;48.904;9.414;2023-06-24T12:57:07;34.40;50.00
15121;DHT22;7661;48.904;9.414;2023-06-24T12:59:34;34.40;49.70
15121;DHT22;7661;48.904;9.414;2023-06-24T13:02:01;34.90;47.80
15121;DHT22;7661;48.904;9.414;2023-06-24T13:04:29;35.50;48.90
15121;DHT22;7661;48.904;9.414;2023-06-24T13:06:57;36.00;47.50
15121;DHT22;7661;48.904;9.414;2023-06-24T13:09:25;36.50;45.40
15121;DHT22;7661;48.904;9.414;2023-06-24T13:11:51;36.30;44.30
15121;DHT22;7661;48.904;9.414;2023-06-24T13:14:18;36.50;47.00
15121;DHT22;7661;48.904;9.414;2023-06-24T13:16:46;36.70;45.40
15121;DHT22;7661;48.904;9.414;2023-06-24T13:19:13;36.50;44.80
15121;DHT22;7661;48.904;9.414;2023-06-24T13:21:40;36.50;46.20
15121;DHT22;7661;48.904;9.414;2023-06-24T13:24:13;36.90;45.30
15121;DHT22;7661;48.904;9.414;2023-06-24T13:26:42;37.30;46.10
15121;DHT22;7661;48.904;9.414;2023-06-24T13:29:10;37.30;44.00
15121;DHT22;7661;48.904;9.414;2023-06-24T13:31:37;37.60;45.30
15121;DHT22;7661;48.904;9.414;2023-06-24T13:34:04;37.70;44.60
15121;DHT22;7661;48.904;9.414;2023-06-24T13:36:32;37.50;44.00
15121;DHT22;7661;48.904;9.414;2023-06-24T13:39:01;37.20;43.70
15121;DHT22;7661;48.904;9.414;2023-06-24T13:41:29;37.10;44.70
15121;DHT22;7661;48.904;9.414;2023-06-24T13:43:59;37.30;43.20
15121;DHT22;7661;48.904;9.414;2023-06-24T13:46:27;37.40;42.90
15121;DHT22;7661;48.904;9.414;2023-06-24T13:48:56;37.60;42.80
15121;DHT22;7661;48.904;9.414;2023-06-24T13:51:25;37.70;42.40
15121;DHT22;7661;48.904;9.414;2023-06-24T13:53:53;37.90;42.50
15121;DHT22;7661;48.904;9.414;2023-06-24T13:56:21;38.10;42.40
15121;DHT22;7661;48.904;9.414;2023-06-24T13:59:01;38.10;41.60
15121;DHT22;7661;48.904;9.414;2023-06-24T14:01:29;38.10;41.60
15121;DHT22;7661;48.904;9.414;2023-06-24T14:03:57;38.10;41.20
15121;DHT22;7661;48.904;9.414;2023-06-24T14:06:24;37.80;41.20
15121;DHT22;7661;48.904;9.414;2023-06-24T14:08:52;37.70;40.40
15121;DHT22;7661;48.904;9.414;2023-06-24T14:11:19;37.50;41.00
15121;DHT22;7661;48.904;9.414;2023-06-24T14:13:46;37.20;40.70
15121;DHT22;7661;48.904;9.414;2023-06-24T14:16:15;37.10;41.30
15121;DHT22;7661;48.904;9.414;2023-06-24T14:18:42;37.00;41.10
15121;DHT22;7661;48.904;9.414;2023-06-24T14:21:09;36.90;41.90
15121;DHT22;7661;48.904;9.414;2023-06-24T14:23:36;37.10;42.20
15121;DHT22;7661;48.904;9.414;2023-06-24T14:26:03;37.30;41.20
15121;DHT22;7661;48.904;9.414;2023-06-24T14:28:30;37.40;41.70
15121;DHT22;7661;48.904;9.414;2023-06-24T14:30:57;37.40;41.70
15121;DHT22;7661;48.904;9.414;2023-06-24T14:33:26;37.10;41.10
15121;DHT22;7661;48.904;9.414;2023-06-24T14:35:56;36.70;41.00
15121;DHT22;7661;48.904;9.414;2023-06-24T14:38:24;36.20;41.70
15121;DHT22;7661;48.904;9.414;2023-06-24T14:40:51;36.00;41.90
15121;DHT22;7661;48.904;9.414;2023-06-24T14:43:18;35.80;42.60
15121;DHT22;7661;48.904;9.414;2023-06-24T14:45:45;35.80;42.80
15121;DHT22;7661;48.904;9.414;2023-06-24T14:48:12;36.00;43.00
15121;DHT22;7661;48.904;9.414;2023-06-24T14:50:41;36.40;42.20
15121;DHT22;7661;48.904;9.414;2023-06-24T14:53:08;36.30;41.60
15121;DHT22;7661;48.904;9.414;2023-06-24T14:55:35;36.30;41.00
15121;DHT22;7661;48.904;9.414;2023-06-24T14:58:02;36.40;41.00
15121;DHT22;7661;48.904;9.414;2023-06-24T15:00:29;36.60;41.20
15121;DHT22;7661;48.904;9.414;2023-06-24T15:02:56;36.50;41.00
15121;DHT22;7661;48.904;9.414;2023-06-24T15:05:23;36.40;41.50
15121;DHT22;7661;48.904;9.414;2023-06-24T15:07:51;36.30;41.80
15121;DHT22;7661;48.904;9.414;2023-06-24T15:10:18;36.30;41.00
15121;DHT22;7661;48.904;9.414;2023-06-24T15:12:45;36.40;41.30
15121;DHT22;7661;48.904;9.414;2023-06-24T15:15:12;36.40;39.00
15121;DHT22;7661;48.904;9.414;2023-06-24T15:17:41;36.10;38.90
15121;DHT22;7661;48.904;9.414;2023-06-24T15:20:11;35.80;39.30
15121;DHT22;7661;48.904;9.414;2023-06-24T15:22:38;35.60;42.00
15121;DHT22;7661;48.904;9.414;2023-06-24T15:25:07;35.70;41.30
15121;DHT22;7661;48.904;9.414;2023-06-24T15:27:34;35.60;38.90
15121;DHT22;7661;48.904;9.414;2023-06-24T15:30:01;35.30;39.30
15121;DHT22;7661;48.904;9.414;2023-06-24T15:32:28;35.20;40.00
15121;DHT22;7661;48.904;9.414;2023-06-24T15:34:55;35.20;40.90
15121;DHT22;7661;48.904;9.414;2023-06-24T15:37:22;35.20;41.40
15121;DHT22;7661;48.904;9.414;2023-06-24T15:39:49;35.10;41.40
15121;DHT22;7661;48.904;9.414;2023-06-24T15:42:17;35.00;42.20
15121;DHT22;7661;48.904;9.414;2023-06-24T15:44:44;34.90;41.60
15121;DHT22;7661;48.904;9.414;2023-06-24T15:47:11;34.80;41.10
15121;DHT22;7661;48.904;9.414;2023-06-24T15:49:38;34.50;41.70
15121;DHT22;7661;48.904;9.414;2023-06-24T15:52:05;34.40;42.80
15121;DHT22;7661;48.904;9.414;2023-06-24T15:54:32;34.30;42.20